createdAt,value
2022-12-29T00:00:12.284Z,32.78
2022-12-29T00:02:43.372Z,31.52
2022-12-29T00:05:11.691Z,28.77
2022-12-29T00:07:40.269Z,30.10
2022-12-29T00:10:09.080Z,31.40
2022-12-29T00:12:55.708Z,31.95
2022-12-29T00:15:39.017Z,30.15
2022-12-29T00:18:08.257Z,30.25
2022-12-29T00:21:07.380Z,28.52
2022-12-29T00:23:55.878Z,30.38
2022-12-29T00:26:42.449Z,29.23
2022-12-29T00:29:29.184Z,27.10
2022-12-29T00:32:15.906Z,33.63
2022-12-29T00:35:03.252Z,29.67
2022-12-29T00:37:50.157Z,34.90
2022-12-29T00:40:37.051Z,33.20
2022-12-29T00:43:23.912Z,35.55
2022-12-29T00:45:52.056Z,31.92
2022-12-29T00:48:40.199Z,35.75
2022-12-29T00:51:09.305Z,34.92
2022-12-29T00:53:37.553Z,33.20
2022-12-29T00:56:05.959Z,33.72
2022-12-29T00:58:34.184Z,30.80
2022-12-29T01:01:07.582Z,31.67
2022-12-29T01:03:37.552Z,29.98
2022-12-29T01:06:08.551Z,33.33
2022-12-29T01:08:37.147Z,31.85
2022-12-29T01:11:08.771Z,29.08
2022-12-29T01:13:39.314Z,33.60
2022-12-29T01:16:07.828Z,31.15
2022-12-29T01:18:36.777Z,30.08
2022-12-29T01:21:06.830Z,32.58
2022-12-29T01:23:35.323Z,28.98
2022-12-29T01:26:19.390Z,28.42
2022-12-29T01:28:47.702Z,32.38
2022-12-29T01:31:16.470Z,31.45
2022-12-29T01:33:45.246Z,28.88
2022-12-29T01:36:16.523Z,31.17
2022-12-29T01:38:45.780Z,32.33
2022-12-29T01:41:16.418Z,29.73
2022-12-29T01:43:53.891Z,31.42
2022-12-29T01:46:31.301Z,26.98
2022-12-29T01:49:20.525Z,29.85
2022-12-29T01:51:56.978Z,25.50
2022-12-29T01:54:50.188Z,26.13
2022-12-29T01:57:32.520Z,28.83
2022-12-29T02:00:09.502Z,28.13
2022-12-29T02:02:52.955Z,24.50
2022-12-29T02:05:47.352Z,25.58
2022-12-29T02:08:17.284Z,23.35
2022-12-29T02:10:46.367Z,23.48
2022-12-29T02:13:18.286Z,24.23
2022-12-29T02:15:55.548Z,22.77
2022-12-29T02:18:43.729Z,26.55
2022-12-29T02:21:40.593Z,22.77
2022-12-29T02:24:42.806Z,23.20
2022-12-29T02:27:42.483Z,24.30
2022-12-29T02:30:29.844Z,24.95
2022-12-29T02:33:19.315Z,26.38
2022-12-29T02:35:59.585Z,29.80
2022-12-29T02:38:33.591Z,23.05
2022-12-29T02:41:16.899Z,27.40
2022-12-29T02:44:03.470Z,29.13
2022-12-29T02:46:55.531Z,21.08
2022-12-29T02:49:33.638Z,29.85
2022-12-29T02:52:11.760Z,24.15
2022-12-29T02:54:43.798Z,27.48
2022-12-29T02:57:23.795Z,26.20
2022-12-29T03:00:09.881Z,27.25
2022-12-29T03:02:50.302Z,26.95
2022-12-29T03:05:36.510Z,30.00
2022-12-29T03:08:13.599Z,25.58
2022-12-29T03:11:01.225Z,29.60
2022-12-29T03:14:09.199Z,31.35
2022-12-29T03:16:54.711Z,33.95
2022-12-29T03:19:40.198Z,29.15
2022-12-29T03:22:29.349Z,30.30
2022-12-29T03:25:06.481Z,27.15
2022-12-29T03:27:40.926Z,32.33
2022-12-29T03:30:10.333Z,33.40
2022-12-29T03:32:59.015Z,28.75
2022-12-29T03:35:33.544Z,28.42
2022-12-29T03:38:16.324Z,29.40
2022-12-29T03:40:50.909Z,33.72
2022-12-29T03:45:49.567Z,28.00
2022-12-29T03:48:17.765Z,29.17
2022-12-29T03:50:47.803Z,25.42
2022-12-29T03:53:18.256Z,30.80
2022-12-29T03:55:47.426Z,28.77
2022-12-29T03:58:15.673Z,27.60
2022-12-29T04:01:04.339Z,30.70
2022-12-29T04:03:35.946Z,27.85
2022-12-29T04:06:04.389Z,25.23
2022-12-29T04:08:40.428Z,28.30
2022-12-29T04:11:08.759Z,24.80
2022-12-29T04:13:37.184Z,32.45
2022-12-29T04:16:06.123Z,31.90
2022-12-29T04:18:34.700Z,31.67
2022-12-29T04:21:05.175Z,29.33
2022-12-29T04:23:38.465Z,29.27
2022-12-29T04:26:10.170Z,25.92
2022-12-29T04:28:51.665Z,28.33
2022-12-29T04:31:35.170Z,25.00
2022-12-29T04:34:04.103Z,26.20
2022-12-29T04:36:33.005Z,25.60
2022-12-29T04:39:04.987Z,27.55
2022-12-29T04:41:34.875Z,29.83
2022-12-29T04:44:04.283Z,27.98
2022-12-29T04:46:51.348Z,27.77
2022-12-29T04:49:52.209Z,26.80
2022-12-29T04:52:52.347Z,27.50
2022-12-29T04:55:20.724Z,29.58
2022-12-29T04:57:48.992Z,28.25
2022-12-29T05:00:20.819Z,28.38
2022-12-29T05:02:49.765Z,28.33
2022-12-29T05:05:19.113Z,27.85
2022-12-29T05:07:50.868Z,28.35
2022-12-29T05:10:19.710Z,24.70
2022-12-29T05:12:49.924Z,26.60
2022-12-29T05:15:18.284Z,26.20
2022-12-29T05:17:47.099Z,23.40
2022-12-29T05:20:15.456Z,23.50
2022-12-29T05:22:44.174Z,26.52
2022-12-29T05:25:12.576Z,24.17
2022-12-29T05:27:54.162Z,25.80
2022-12-29T05:30:44.678Z,26.70
2022-12-29T05:33:13.047Z,26.70
2022-12-29T05:35:42.145Z,24.95
2022-12-29T05:38:11.500Z,22.67
2022-12-29T05:40:40.644Z,27.10
2022-12-29T05:43:20.046Z,24.92
2022-12-29T05:46:07.151Z,24.52
2022-12-29T05:49:02.020Z,21.23
2022-12-29T05:51:40.354Z,23.08
2022-12-29T05:54:09.407Z,24.33
2022-12-29T05:56:38.326Z,26.92
2022-12-29T05:59:06.489Z,24.48
2022-12-29T06:01:38.645Z,28.92
2022-12-29T06:04:07.162Z,24.80
2022-12-29T06:06:35.404Z,26.35
2022-12-29T06:09:05.000Z,22.67
2022-12-29T06:11:33.229Z,31.27
2022-12-29T06:14:02.262Z,30.75
2022-12-29T06:16:30.645Z,27.23
2022-12-29T06:19:02.175Z,24.58
2022-12-29T06:21:31.446Z,25.30
2022-12-29T06:24:03.400Z,24.52
2022-12-29T06:26:31.755Z,21.83
2022-12-29T06:29:00.157Z,22.20
2022-12-29T06:31:28.513Z,28.42
2022-12-29T06:33:57.011Z,29.88
2022-12-29T06:36:25.394Z,28.20
2022-12-29T06:38:54.223Z,29.77
2022-12-29T06:41:29.983Z,21.75
2022-12-29T06:44:19.311Z,25.20
2022-12-29T06:46:58.639Z,28.50
2022-12-29T06:49:26.881Z,26.40
2022-12-29T06:51:55.100Z,28.33
2022-12-29T06:54:23.306Z,27.42
2022-12-29T06:56:51.501Z,25.45
2022-12-29T06:59:19.775Z,27.23
2022-12-29T07:01:48.099Z,19.85
2022-12-29T07:04:16.336Z,27.85
2022-12-29T07:06:45.720Z,20.33
2022-12-29T07:09:14.091Z,21.60
2022-12-29T07:11:42.370Z,20.50
2022-12-29T07:14:12.279Z,22.25
2022-12-29T07:16:40.573Z,26.20
2022-12-29T07:19:11.919Z,22.05
2022-12-29T07:21:47.630Z,24.02
2022-12-29T07:24:15.855Z,22.40
2022-12-29T07:26:44.127Z,27.23
2022-12-29T07:29:12.358Z,24.02
2022-12-29T07:31:40.591Z,24.67
2022-12-29T07:34:10.382Z,19.02
2022-12-29T07:36:38.558Z,20.23
2022-12-29T07:39:09.621Z,32.70
2022-12-29T07:41:37.932Z,29.55
2022-12-29T07:44:06.128Z,28.08
2022-12-29T07:46:57.756Z,34.72
2022-12-29T07:49:27.367Z,29.58
2022-12-29T07:51:55.673Z,35.83
2022-12-29T07:54:24.387Z,40.75
2022-12-29T07:56:52.679Z,37.60
2022-12-29T07:59:21.293Z,37.95
2022-12-29T08:01:49.638Z,37.83
2022-12-29T08:04:18.049Z,41.45
2022-12-29T08:06:46.587Z,38.15
2022-12-29T08:09:21.573Z,40.13
2022-12-29T08:11:50.551Z,38.33
2022-12-29T08:14:19.344Z,37.35
2022-12-29T08:16:47.904Z,33.00
2022-12-29T08:19:16.226Z,35.78
2022-12-29T08:21:44.517Z,35.10
2022-12-29T08:24:12.901Z,32.00
2022-12-29T08:26:43.145Z,33.55
2022-12-29T08:29:11.382Z,26.77
2022-12-29T08:31:39.763Z,23.17
2022-12-29T08:34:08.063Z,29.92
2022-12-29T08:36:36.287Z,26.58
2022-12-29T08:39:04.476Z,27.85
2022-12-29T08:41:32.753Z,28.75
2022-12-29T08:44:01.790Z,24.75
2022-12-29T08:46:30.137Z,23.05
2022-12-29T08:48:58.384Z,29.73
2022-12-29T08:51:26.615Z,26.17
2022-12-29T08:53:54.910Z,29.08
2022-12-29T08:56:24.841Z,28.73
2022-12-29T08:58:56.670Z,29.80
2022-12-29T09:01:26.268Z,26.88
2022-12-29T09:06:45.346Z,27.48
2022-12-29T09:09:13.853Z,31.90
2022-12-29T09:11:43.986Z,33.22
2022-12-29T09:14:12.625Z,34.40
2022-12-29T09:17:00.568Z,37.15
2022-12-29T09:19:28.831Z,45.88
2022-12-29T09:21:57.318Z,36.58
2022-12-29T09:24:30.549Z,33.95
2022-12-29T09:26:58.722Z,36.88
2022-12-29T09:29:27.130Z,39.15
2022-12-29T09:31:57.152Z,42.45
2022-12-29T09:34:28.147Z,39.28
2022-12-29T09:36:57.229Z,39.95
2022-12-29T09:39:25.828Z,37.15
2022-12-29T09:42:10.064Z,39.03
2022-12-29T09:45:10.020Z,46.35
2022-12-29T09:47:38.929Z,38.92
2022-12-29T09:50:29.755Z,44.33
2022-12-29T09:53:23.659Z,46.72
2022-12-29T09:58:40.385Z,38.40
2022-12-29T10:01:19.132Z,36.88
2022-12-29T10:03:51.051Z,34.15
2022-12-29T10:06:29.068Z,34.80
2022-12-29T10:09:31.380Z,36.55
2022-12-29T10:12:17.872Z,31.95
2022-12-29T10:15:07.542Z,29.38
2022-12-29T10:17:35.739Z,35.35
2022-12-29T10:20:19.578Z,33.75
2022-12-29T10:22:57.038Z,33.72
2022-12-29T10:25:31.176Z,27.38
2022-12-29T10:28:07.688Z,33.58
2022-12-29T10:30:36.970Z,35.83
2022-12-29T10:33:11.228Z,34.85
2022-12-29T10:35:41.614Z,34.50
2022-12-29T10:38:15.869Z,30.67
2022-12-29T10:41:08.673Z,33.35
2022-12-29T10:43:50.047Z,37.67
2022-12-29T10:46:29.601Z,44.60
2022-12-29T10:48:57.892Z,43.00
2022-12-29T10:51:43.773Z,37.55
2022-12-29T10:54:19.332Z,41.47
2022-12-29T10:57:10.671Z,41.85
2022-12-29T10:59:40.170Z,47.00
2022-12-29T11:02:11.590Z,44.10
2022-12-29T11:04:48.590Z,44.75
2022-12-29T11:07:27.010Z,42.92
2022-12-29T11:09:55.949Z,46.63
2022-12-29T11:12:28.076Z,44.88
2022-12-29T11:15:16.921Z,43.13
2022-12-29T11:17:52.291Z,42.42
2022-12-29T11:20:38.853Z,46.10
2022-12-29T11:23:42.900Z,50.08
2022-12-29T11:26:22.576Z,47.33
2022-12-29T11:29:09.408Z,48.67
2022-12-29T11:31:45.079Z,47.22
2022-12-29T11:34:34.467Z,47.28
2022-12-29T11:37:31.357Z,45.22
2022-12-29T11:40:06.546Z,42.22
2022-12-29T11:42:43.047Z,52.30
2022-12-29T11:45:21.627Z,49.75
2022-12-29T11:48:01.964Z,51.55
2022-12-29T11:50:33.986Z,50.38
2022-12-29T11:53:27.328Z,53.75
2022-12-29T11:56:03.528Z,57.20
2022-12-29T11:58:37.816Z,63.17
2022-12-29T12:01:18.377Z,58.08
2022-12-29T12:04:09.811Z,56.17
2022-12-29T12:07:02.696Z,60.03
2022-12-29T12:09:39.785Z,60.45
2022-12-29T12:12:23.910Z,65.32
2022-12-29T12:15:00.480Z,62.45
2022-12-29T12:18:09.849Z,60.35
2022-12-29T12:20:53.192Z,60.60
2022-12-29T12:23:39.512Z,64.60
2022-12-29T12:26:12.463Z,69.03
2022-12-29T12:29:14.610Z,63.97
2022-12-29T12:31:56.366Z,62.38
2022-12-29T12:34:34.979Z,71.65
2022-12-29T12:37:26.954Z,62.85
2022-12-29T12:40:17.011Z,62.45
2022-12-29T12:43:15.378Z,62.35
2022-12-29T12:46:13.744Z,62.30
2022-12-29T12:49:03.451Z,69.75
2022-12-29T12:52:02.894Z,64.72
2022-12-29T12:54:38.866Z,56.60
2022-12-29T12:57:07.080Z,60.97
2022-12-29T13:00:12.261Z,60.47
2022-12-29T13:02:55.497Z,61.95
2022-12-29T13:05:29.336Z,65.05
2022-12-29T13:08:30.089Z,58.33
2022-12-29T13:11:30.622Z,65.45
2022-12-29T13:14:13.045Z,59.08
2022-12-29T13:16:41.265Z,59.97
2022-12-29T13:19:25.907Z,60.70
2022-12-29T13:22:18.696Z,64.80
2022-12-29T13:25:24.380Z,56.58
2022-12-29T13:27:56.653Z,59.53
2022-12-29T13:30:38.753Z,66.87
2022-12-29T13:33:21.727Z,64.85
2022-12-29T13:36:19.549Z,64.35
2022-12-29T13:38:55.875Z,51.83
2022-12-29T13:41:35.684Z,63.15
2022-12-29T13:44:06.545Z,55.75
2022-12-29T13:46:45.276Z,58.80
2022-12-29T13:49:22.896Z,64.47
2022-12-29T13:51:55.480Z,62.25
2022-12-29T13:55:03.693Z,58.60
2022-12-29T13:58:21.684Z,60.83
2022-12-29T14:01:04.175Z,62.20
2022-12-29T14:03:52.427Z,60.05
2022-12-29T14:06:30.719Z,58.05
2022-12-29T14:09:04.640Z,61.42
2022-12-29T14:11:41.955Z,58.78
2022-12-29T14:14:22.196Z,56.33
2022-12-29T14:16:51.188Z,64.63
2022-12-29T14:19:28.054Z,57.63
2022-12-29T14:22:00.739Z,61.33
2022-12-29T14:24:40.859Z,60.92
2022-12-29T14:27:14.582Z,63.38
2022-12-29T14:29:44.419Z,63.55
2022-12-29T14:32:27.939Z,64.55
2022-12-29T14:37:31.938Z,62.65
2022-12-29T14:40:28.802Z,67.57
2022-12-29T14:42:58.536Z,64.28
2022-12-29T14:45:33.820Z,68.70
2022-12-29T14:48:02.263Z,67.70
2022-12-29T14:50:43.653Z,60.78
2022-12-29T14:53:47.706Z,68.78
2022-12-29T14:58:53.884Z,65.43
2022-12-29T15:02:00.951Z,72.03
2022-12-29T15:04:33.573Z,74.32
2022-12-29T15:07:05.536Z,70.85
2022-12-29T15:09:34.652Z,74.70
2022-12-29T15:12:16.774Z,74.78
2022-12-29T15:14:58.091Z,73.13
2022-12-29T15:17:29.059Z,74.60
2022-12-29T15:19:59.046Z,74.25
2022-12-29T15:22:28.460Z,69.65
2022-12-29T15:24:57.888Z,69.05
2022-12-29T15:27:27.518Z,74.78
2022-12-29T15:30:02.909Z,69.88
2022-12-29T15:32:43.459Z,73.40
2022-12-29T15:35:35.634Z,74.10
2022-12-29T15:38:30.289Z,74.80
2022-12-29T15:41:24.085Z,73.90
2022-12-29T15:44:03.988Z,79.15
2022-12-29T15:46:33.310Z,70.55
2022-12-29T15:49:05.831Z,76.22
2022-12-29T15:51:40.717Z,74.83
2022-12-29T15:54:18.836Z,73.80
2022-12-29T15:56:47.643Z,78.10
2022-12-29T15:59:27.566Z,76.60
2022-12-29T16:01:58.431Z,87.22
2022-12-29T16:04:30.217Z,73.32
2022-12-29T16:07:06.904Z,77.00
2022-12-29T16:09:37.302Z,71.43
2022-12-29T16:12:16.489Z,74.93
2022-12-29T16:14:50.930Z,89.13
2022-12-29T16:17:24.388Z,80.63
2022-12-29T16:20:00.187Z,80.72
2022-12-29T16:22:33.508Z,80.70
2022-12-29T16:27:38.595Z,82.80
2022-12-29T16:30:18.343Z,81.30
2022-12-29T16:32:52.360Z,77.95
2022-12-29T16:35:26.812Z,76.15
2022-12-29T16:38:22.488Z,85.45
2022-12-29T16:41:03.420Z,82.57
2022-12-29T16:43:42.709Z,86.35
2022-12-29T16:46:28.224Z,85.03
2022-12-29T16:48:58.368Z,85.18
2022-12-29T16:51:29.426Z,85.82
2022-12-29T16:54:01.805Z,86.07
2022-12-29T16:56:34.536Z,87.28
2022-12-29T16:59:35.890Z,91.25
2022-12-29T17:02:14.710Z,93.05
2022-12-29T17:04:43.565Z,93.30
2022-12-29T17:07:20.082Z,109.13
2022-12-29T17:09:48.589Z,101.15
2022-12-29T17:12:20.385Z,92.85
2022-12-29T17:14:56.907Z,85.47
2022-12-29T17:17:35.431Z,88.38
2022-12-29T17:20:25.611Z,88.60
2022-12-29T17:22:55.673Z,89.47
2022-12-29T17:25:31.643Z,86.55
2022-12-29T17:28:04.445Z,87.75
2022-12-29T17:30:35.192Z,87.70
2022-12-29T17:33:18.615Z,94.88
2022-12-29T17:35:54.881Z,89.85
2022-12-29T17:38:39.700Z,84.25
2022-12-29T17:41:16.782Z,80.53
2022-12-29T17:43:45.537Z,81.82
2022-12-29T17:46:14.136Z,90.13
2022-12-29T17:48:45.631Z,89.85
2022-12-29T17:51:21.037Z,87.97
2022-12-29T17:53:52.422Z,87.90
2022-12-29T17:56:23.811Z,95.68
2022-12-29T17:58:52.064Z,95.43
2022-12-29T18:01:21.935Z,90.95
2022-12-29T18:03:55.537Z,91.65
2022-12-29T18:06:26.152Z,86.80
2022-12-29T18:08:54.430Z,95.38
2022-12-29T18:11:27.741Z,87.07
2022-12-29T18:16:27.533Z,80.20
2022-12-29T18:18:55.706Z,84.50
2022-12-29T18:21:25.390Z,90.38
2022-12-29T18:23:53.728Z,91.30
2022-12-29T18:26:28.086Z,90.10
2022-12-29T18:28:58.018Z,92.32
2022-12-29T18:31:31.666Z,87.75
2022-12-29T18:34:02.464Z,89.70
2022-12-29T18:36:30.686Z,88.65
2022-12-29T18:39:01.388Z,87.38
2022-12-29T18:41:30.646Z,91.15
2022-12-29T18:43:59.617Z,86.90
2022-12-29T18:46:28.486Z,83.07
2022-12-29T18:48:56.740Z,83.13
2022-12-29T18:51:26.171Z,85.55
2022-12-29T18:53:54.895Z,83.13
2022-12-29T18:56:24.968Z,78.43
2022-12-29T18:58:53.646Z,75.95
2022-12-29T19:01:25.459Z,78.88
2022-12-29T19:03:54.237Z,82.97
2022-12-29T19:06:22.522Z,78.00
2022-12-29T19:08:50.726Z,78.50
2022-12-29T19:11:18.951Z,85.75
2022-12-29T19:13:47.147Z,81.38
2022-12-29T19:16:21.396Z,81.03
2022-12-29T19:19:05.889Z,73.57
2022-12-29T19:21:37.910Z,91.05
2022-12-29T19:24:06.537Z,80.43
2022-12-29T19:26:38.165Z,86.70
2022-12-29T19:29:15.445Z,89.18
2022-12-29T19:31:43.850Z,89.93
2022-12-29T19:34:16.267Z,81.80
2022-12-29T19:36:45.815Z,89.15
2022-12-29T19:39:14.612Z,78.32
2022-12-29T19:41:43.104Z,80.07
2022-12-29T19:44:11.377Z,80.10
2022-12-29T19:46:39.639Z,74.78
2022-12-29T19:49:07.905Z,76.22
2022-12-29T19:51:36.206Z,66.32
2022-12-29T19:54:04.539Z,71.40
2022-12-29T19:56:32.818Z,70.05
2022-12-29T19:59:01.059Z,69.95
2022-12-29T20:01:29.438Z,66.07
2022-12-29T20:03:57.867Z,66.38
2022-12-29T20:06:26.099Z,66.00
2022-12-29T20:08:55.569Z,64.47
2022-12-29T20:11:23.885Z,71.80
2022-12-29T20:13:52.127Z,71.10
2022-12-29T20:16:20.978Z,71.38
2022-12-29T20:18:49.624Z,73.55
2022-12-29T20:21:21.097Z,73.45
2022-12-29T20:23:50.808Z,71.85
2022-12-29T20:26:25.902Z,73.90
2022-12-29T20:28:54.762Z,75.93
2022-12-29T20:31:33.426Z,75.47
2022-12-29T20:34:02.282Z,81.70
2022-12-29T20:36:35.599Z,74.35
2022-12-29T20:41:34.601Z,80.13
2022-12-29T20:44:05.149Z,87.95
2022-12-29T20:46:39.432Z,72.65
2022-12-29T20:49:11.923Z,77.03
2022-12-29T20:54:35.539Z,74.95
2022-12-29T20:57:07.413Z,70.85
2022-12-29T20:59:35.734Z,66.18
2022-12-29T21:02:04.159Z,65.10
2022-12-29T21:04:57.366Z,64.38
2022-12-29T21:07:20.855Z,55.80
2022-12-29T21:09:49.180Z,60.78
2022-12-29T21:12:17.425Z,61.95
2022-12-29T21:14:46.220Z,62.10
2022-12-29T21:17:14.676Z,61.20
2022-12-29T21:19:42.932Z,64.35
2022-12-29T21:22:15.833Z,65.10
2022-12-29T21:24:44.475Z,62.42
2022-12-29T21:27:15.852Z,63.50
2022-12-29T21:29:44.045Z,61.55
2022-12-29T21:32:12.259Z,67.95
2022-12-29T21:34:40.484Z,62.92
2022-12-29T21:37:08.686Z,65.88
2022-12-29T21:39:37.151Z,66.35
2022-12-29T21:42:05.988Z,63.67
2022-12-29T21:44:53.097Z,67.90
2022-12-29T21:47:21.280Z,67.65
2022-12-29T21:49:52.134Z,65.15
2022-12-29T21:52:20.337Z,67.70
2022-12-29T21:55:00.707Z,65.35
2022-12-29T21:57:48.508Z,64.95
2022-12-29T22:00:35.627Z,61.40
2022-12-29T22:03:25.772Z,58.05
2022-12-29T22:06:13.292Z,62.55
2022-12-29T22:09:00.254Z,63.88
2022-12-29T22:11:47.227Z,67.50
2022-12-29T22:14:15.466Z,65.47
2022-12-29T22:16:43.689Z,66.18
2022-12-29T22:19:11.917Z,71.03
2022-12-29T22:21:40.152Z,63.97
2022-12-29T22:24:08.917Z,65.32
2022-12-29T22:26:37.237Z,62.15
2022-12-29T22:29:05.833Z,68.10
2022-12-29T22:31:34.212Z,60.75
2022-12-29T22:34:04.261Z,59.22
2022-12-29T22:36:32.851Z,57.53
2022-12-29T22:39:00.997Z,58.20
2022-12-29T22:41:29.256Z,58.10
2022-12-29T22:43:59.892Z,56.97
2022-12-29T22:46:28.967Z,57.53
2022-12-29T22:48:58.071Z,61.55
2022-12-29T22:51:26.452Z,62.92
2022-12-29T22:53:54.749Z,59.38
2022-12-29T22:56:22.994Z,55.75
2022-12-29T22:58:51.243Z,58.58
2022-12-29T23:01:23.254Z,58.67
2022-12-29T23:03:52.002Z,66.07
2022-12-29T23:06:20.411Z,62.08
2022-12-29T23:08:48.685Z,63.55
2022-12-29T23:11:17.517Z,73.10
2022-12-29T23:13:47.549Z,66.22
2022-12-29T23:16:16.627Z,61.55
2022-12-29T23:18:47.446Z,61.67
2022-12-29T23:21:17.804Z,66.68
2022-12-29T23:24:04.203Z,65.75
2022-12-29T23:26:36.548Z,62.80
2022-12-29T23:29:07.574Z,62.88
2022-12-29T23:31:36.856Z,59.92
2022-12-29T23:34:06.426Z,61.58
2022-12-29T23:36:35.357Z,57.40
2022-12-29T23:39:04.400Z,61.72
2022-12-29T23:41:32.624Z,59.33
2022-12-29T23:44:00.962Z,58.30
2022-12-29T23:46:31.348Z,56.47
2022-12-29T23:48:59.824Z,59.55
2022-12-29T23:51:28.091Z,59.03
2022-12-29T23:53:56.325Z,59.10
2022-12-29T23:56:24.721Z,52.65
2022-12-29T23:58:53.303Z,53.53
